高雄國際航空站 - 塔台/地面席

METAR RCKH 311000Z 25011KT 230V290 9999 FEW015 SCT020 30/26 Q1010 NOSIG RMK 26010KT/R09 A2984=

站台狀態:Offline
最後更新:2020-05-31 18:00:02